sensor_id;sensor_type;location;lat;lon;timestamp;P1;durP1;ratioP1;P2;durP2;ratioP2
20271;SDS011;10295;49.812;9.866;2023-03-01T00:02:08;36.87;;;17.60;;
20271;SDS011;10295;49.812;9.866;2023-03-01T00:04:35;35.90;;;17.63;;
20271;SDS011;10295;49.812;9.866;2023-03-01T00:07:03;40.67;;;18.83;;
20271;SDS011;10295;49.812;9.866;2023-03-01T00:09:30;37.00;;;17.30;;
20271;SDS011;10295;49.812;9.866;2023-03-01T00:11:57;34.23;;;17.17;;
20271;SDS011;10295;49.812;9.866;2023-03-01T00:14:24;41.87;;;17.53;;
20271;SDS011;10295;49.812;9.866;2023-03-01T00:16:51;37.63;;;18.00;;
20271;SDS011;10295;49.812;9.866;2023-03-01T00:19:20;34.40;;;16.93;;
20271;SDS011;10295;49.812;9.866;2023-03-01T00:21:48;39.53;;;17.93;;
20271;SDS011;10295;49.812;9.866;2023-03-01T00:24:15;36.47;;;17.57;;
20271;SDS011;10295;49.812;9.866;2023-03-01T00:26:42;37.23;;;17.53;;
20271;SDS011;10295;49.812;9.866;2023-03-01T00:29:10;40.07;;;18.37;;
20271;SDS011;10295;49.812;9.866;2023-03-01T00:31:37;32.60;;;17.03;;
20271;SDS011;10295;49.812;9.866;2023-03-01T00:34:04;35.47;;;17.60;;
20271;SDS011;10295;49.812;9.866;2023-03-01T00:36:33;36.77;;;17.20;;
20271;SDS011;10295;49.812;9.866;2023-03-01T00:39:01;39.03;;;17.37;;
20271;SDS011;10295;49.812;9.866;2023-03-01T00:41:29;35.60;;;17.80;;
20271;SDS011;10295;49.812;9.866;2023-03-01T00:43:56;38.63;;;18.30;;
20271;SDS011;10295;49.812;9.866;2023-03-01T00:46:25;36.73;;;18.07;;
20271;SDS011;10295;49.812;9.866;2023-03-01T00:48:53;39.37;;;18.17;;
20271;SDS011;10295;49.812;9.866;2023-03-01T00:51:23;37.93;;;18.67;;
20271;SDS011;10295;49.812;9.866;2023-03-01T00:53:51;38.33;;;18.97;;
20271;SDS011;10295;49.812;9.866;2023-03-01T00:56:18;39.70;;;18.90;;
20271;SDS011;10295;49.812;9.866;2023-03-01T00:58:46;36.20;;;18.43;;
20271;SDS011;10295;49.812;9.866;2023-03-01T01:01:14;37.73;;;19.07;;
20271;SDS011;10295;49.812;9.866;2023-03-01T01:03:46;38.17;;;18.80;;
20271;SDS011;10295;49.812;9.866;2023-03-01T01:06:21;39.90;;;19.40;;
20271;SDS011;10295;49.812;9.866;2023-03-01T01:08:49;39.50;;;18.87;;
20271;SDS011;10295;49.812;9.866;2023-03-01T01:11:16;37.43;;;18.97;;
20271;SDS011;10295;49.812;9.866;2023-03-01T01:13:44;39.17;;;18.90;;
20271;SDS011;10295;49.812;9.866;2023-03-01T01:16:12;40.13;;;18.87;;
20271;SDS011;10295;49.812;9.866;2023-03-01T01:18:39;41.03;;;19.43;;
20271;SDS011;10295;49.812;9.866;2023-03-01T01:21:08;39.47;;;18.87;;
20271;SDS011;10295;49.812;9.866;2023-03-01T01:23:36;45.67;;;18.93;;
20271;SDS011;10295;49.812;9.866;2023-03-01T01:26:07;41.90;;;19.27;;
20271;SDS011;10295;49.812;9.866;2023-03-01T01:28:34;44.20;;;18.83;;
20271;SDS011;10295;49.812;9.866;2023-03-01T01:31:02;39.33;;;19.23;;
20271;SDS011;10295;49.812;9.866;2023-03-01T01:33:29;39.93;;;19.07;;
20271;SDS011;10295;49.812;9.866;2023-03-01T01:35:56;41.33;;;19.80;;
20271;SDS011;10295;49.812;9.866;2023-03-01T01:38:24;41.93;;;19.33;;
20271;SDS011;10295;49.812;9.866;2023-03-01T01:40:51;39.10;;;19.40;;
20271;SDS011;10295;49.812;9.866;2023-03-01T01:43:23;39.03;;;18.57;;
20271;SDS011;10295;49.812;9.866;2023-03-01T01:45:51;42.07;;;20.10;;
20271;SDS011;10295;49.812;9.866;2023-03-01T01:48:20;40.87;;;19.13;;
20271;SDS011;10295;49.812;9.866;2023-03-01T01:50:54;40.33;;;19.27;;
20271;SDS011;10295;49.812;9.866;2023-03-01T01:53:22;42.40;;;20.33;;
20271;SDS011;10295;49.812;9.866;2023-03-01T01:55:55;42.70;;;20.33;;
20271;SDS011;10295;49.812;9.866;2023-03-01T01:58:26;42.07;;;19.83;;
20271;SDS011;10295;49.812;9.866;2023-03-01T02:00:54;41.13;;;20.40;;
20271;SDS011;10295;49.812;9.866;2023-03-01T02:03:26;42.90;;;19.10;;
20271;SDS011;10295;49.812;9.866;2023-03-01T02:08:23;41.03;;;19.83;;
20271;SDS011;10295;49.812;9.866;2023-03-01T02:10:52;41.37;;;19.13;;
20271;SDS011;10295;49.812;9.866;2023-03-01T02:13:19;44.43;;;20.57;;
20271;SDS011;10295;49.812;9.866;2023-03-01T02:15:47;44.17;;;20.47;;
20271;SDS011;10295;49.812;9.866;2023-03-01T02:18:15;43.10;;;19.83;;
20271;SDS011;10295;49.812;9.866;2023-03-01T02:21:34;41.00;;;19.17;;
20271;SDS011;10295;49.812;9.866;2023-03-01T02:23:31;43.17;;;19.83;;
20271;SDS011;10295;49.812;9.866;2023-03-01T02:28:32;38.37;;;18.77;;
20271;SDS011;10295;49.812;9.866;2023-03-01T02:31:00;40.40;;;19.27;;
20271;SDS011;10295;49.812;9.866;2023-03-01T02:33:47;42.20;;;19.03;;
20271;SDS011;10295;49.812;9.866;2023-03-01T02:36:31;41.83;;;19.63;;
20271;SDS011;10295;49.812;9.866;2023-03-01T02:39:01;40.83;;;18.87;;
20271;SDS011;10295;49.812;9.866;2023-03-01T02:41:31;44.33;;;20.20;;
20271;SDS011;10295;49.812;9.866;2023-03-01T02:43:58;40.77;;;19.67;;
20271;SDS011;10295;49.812;9.866;2023-03-01T02:46:26;39.33;;;19.53;;
20271;SDS011;10295;49.812;9.866;2023-03-01T02:48:57;41.97;;;19.90;;
20271;SDS011;10295;49.812;9.866;2023-03-01T02:51:38;46.43;;;19.87;;
20271;SDS011;10295;49.812;9.866;2023-03-01T02:56:43;44.60;;;20.73;;
20271;SDS011;10295;49.812;9.866;2023-03-01T02:59:14;41.37;;;19.57;;
20271;SDS011;10295;49.812;9.866;2023-03-01T03:01:42;46.23;;;20.83;;
20271;SDS011;10295;49.812;9.866;2023-03-01T03:04:13;42.87;;;20.63;;
20271;SDS011;10295;49.812;9.866;2023-03-01T03:06:47;42.60;;;19.37;;
20271;SDS011;10295;49.812;9.866;2023-03-01T03:09:15;45.00;;;20.50;;
20271;SDS011;10295;49.812;9.866;2023-03-01T03:11:42;44.57;;;20.10;;
20271;SDS011;10295;49.812;9.866;2023-03-01T03:14:10;42.80;;;20.03;;
20271;SDS011;10295;49.812;9.866;2023-03-01T03:16:42;44.00;;;20.53;;
20271;SDS011;10295;49.812;9.866;2023-03-01T03:19:10;45.03;;;20.57;;
20271;SDS011;10295;49.812;9.866;2023-03-01T03:21:37;45.30;;;20.60;;
20271;SDS011;10295;49.812;9.866;2023-03-01T03:24:05;43.23;;;20.30;;
20271;SDS011;10295;49.812;9.866;2023-03-01T03:26:32;43.33;;;18.90;;
20271;SDS011;10295;49.812;9.866;2023-03-01T03:28:59;44.00;;;20.33;;
20271;SDS011;10295;49.812;9.866;2023-03-01T03:31:27;43.33;;;20.17;;
20271;SDS011;10295;49.812;9.866;2023-03-01T03:33:54;41.67;;;19.60;;
20271;SDS011;10295;49.812;9.866;2023-03-01T03:36:23;42.50;;;19.13;;
20271;SDS011;10295;49.812;9.866;2023-03-01T03:38:50;43.50;;;18.93;;
20271;SDS011;10295;49.812;9.866;2023-03-01T03:41:18;45.53;;;21.20;;
20271;SDS011;10295;49.812;9.866;2023-03-01T03:43:45;42.80;;;20.17;;
20271;SDS011;10295;49.812;9.866;2023-03-01T03:46:12;43.20;;;20.13;;
20271;SDS011;10295;49.812;9.866;2023-03-01T03:48:40;43.10;;;20.57;;
20271;SDS011;10295;49.812;9.866;2023-03-01T03:51:12;44.43;;;19.83;;
20271;SDS011;10295;49.812;9.866;2023-03-01T03:53:39;46.20;;;20.80;;
20271;SDS011;10295;49.812;9.866;2023-03-01T03:56:07;44.00;;;21.10;;
20271;SDS011;10295;49.812;9.866;2023-03-01T03:58:34;45.57;;;19.43;;
20271;SDS011;10295;49.812;9.866;2023-03-01T04:01:01;42.07;;;20.13;;
20271;SDS011;10295;49.812;9.866;2023-03-01T04:03:29;42.37;;;19.80;;
20271;SDS011;10295;49.812;9.866;2023-03-01T04:05:57;42.33;;;19.33;;
20271;SDS011;10295;49.812;9.866;2023-03-01T04:08:24;43.23;;;19.63;;
20271;SDS011;10295;49.812;9.866;2023-03-01T04:10:52;46.17;;;21.13;;
20271;SDS011;10295;49.812;9.866;2023-03-01T04:13:20;48.73;;;21.17;;
20271;SDS011;10295;49.812;9.866;2023-03-01T04:15:51;42.13;;;20.17;;
20271;SDS011;10295;49.812;9.866;2023-03-01T04:18:19;45.17;;;20.90;;
20271;SDS011;10295;49.812;9.866;2023-03-01T04:20:47;41.00;;;19.83;;
20271;SDS011;10295;49.812;9.866;2023-03-01T04:23:15;44.60;;;20.00;;
20271;SDS011;10295;49.812;9.866;2023-03-01T04:25:46;42.90;;;20.87;;
20271;SDS011;10295;49.812;9.866;2023-03-01T04:28:24;46.67;;;20.70;;
20271;SDS011;10295;49.812;9.866;2023-03-01T04:30:52;42.60;;;19.77;;
20271;SDS011;10295;49.812;9.866;2023-03-01T04:33:19;40.03;;;19.37;;
20271;SDS011;10295;49.812;9.866;2023-03-01T04:36:01;44.30;;;21.30;;
20271;SDS011;10295;49.812;9.866;2023-03-01T04:38:31;41.97;;;19.67;;
20271;SDS011;10295;49.812;9.866;2023-03-01T04:41:00;42.47;;;19.87;;
20271;SDS011;10295;49.812;9.866;2023-03-01T04:43:27;44.03;;;19.40;;
20271;SDS011;10295;49.812;9.866;2023-03-01T04:45:54;40.60;;;18.77;;
20271;SDS011;10295;49.812;9.866;2023-03-01T04:48:21;44.70;;;19.57;;
20271;SDS011;10295;49.812;9.866;2023-03-01T04:50:48;37.43;;;18.13;;
20271;SDS011;10295;49.812;9.866;2023-03-01T04:53:15;38.83;;;18.10;;
20271;SDS011;10295;49.812;9.866;2023-03-01T04:55:44;36.70;;;17.43;;
20271;SDS011;10295;49.812;9.866;2023-03-01T04:58:11;39.37;;;18.73;;
20271;SDS011;10295;49.812;9.866;2023-03-01T05:00:38;36.57;;;17.50;;
20271;SDS011;10295;49.812;9.866;2023-03-01T05:03:06;38.13;;;18.47;;
20271;SDS011;10295;49.812;9.866;2023-03-01T05:05:33;42.33;;;18.90;;
20271;SDS011;10295;49.812;9.866;2023-03-01T05:08:03;43.20;;;18.70;;
20271;SDS011;10295;49.812;9.866;2023-03-01T05:10:31;36.87;;;17.80;;
20271;SDS011;10295;49.812;9.866;2023-03-01T05:12:58;41.47;;;18.50;;
20271;SDS011;10295;49.812;9.866;2023-03-01T05:15:26;38.63;;;17.30;;
20271;SDS011;10295;49.812;9.866;2023-03-01T05:17:54;35.23;;;18.20;;
20271;SDS011;10295;49.812;9.866;2023-03-01T05:20:22;37.93;;;18.03;;
20271;SDS011;10295;49.812;9.866;2023-03-01T05:22:49;37.03;;;17.57;;
20271;SDS011;10295;49.812;9.866;2023-03-01T05:25:16;35.10;;;17.60;;
20271;SDS011;10295;49.812;9.866;2023-03-01T05:27:44;35.20;;;17.30;;
20271;SDS011;10295;49.812;9.866;2023-03-01T05:30:11;34.90;;;16.50;;
20271;SDS011;10295;49.812;9.866;2023-03-01T05:32:42;36.13;;;17.93;;
20271;SDS011;10295;49.812;9.866;2023-03-01T05:35:13;38.03;;;16.70;;
20271;SDS011;10295;49.812;9.866;2023-03-01T05:37:41;37.27;;;17.67;;
20271;SDS011;10295;49.812;9.866;2023-03-01T05:40:09;36.97;;;16.60;;
20271;SDS011;10295;49.812;9.866;2023-03-01T05:42:59;35.43;;;17.57;;
20271;SDS011;10295;49.812;9.866;2023-03-01T05:45:27;36.30;;;16.97;;
20271;SDS011;10295;49.812;9.866;2023-03-01T05:47:54;34.80;;;16.37;;
20271;SDS011;10295;49.812;9.866;2023-03-01T05:50:22;38.17;;;17.00;;
20271;SDS011;10295;49.812;9.866;2023-03-01T05:52:56;34.90;;;17.33;;
20271;SDS011;10295;49.812;9.866;2023-03-01T05:55:23;37.63;;;16.70;;
20271;SDS011;10295;49.812;9.866;2023-03-01T05:57:53;35.70;;;16.43;;
20271;SDS011;10295;49.812;9.866;2023-03-01T06:00:20;37.77;;;17.50;;
20271;SDS011;10295;49.812;9.866;2023-03-01T06:02:50;38.33;;;17.10;;
20271;SDS011;10295;49.812;9.866;2023-03-01T06:05:18;35.93;;;17.60;;
20271;SDS011;10295;49.812;9.866;2023-03-01T06:07:45;35.20;;;17.50;;
20271;SDS011;10295;49.812;9.866;2023-03-01T06:10:12;34.17;;;16.63;;
20271;SDS011;10295;49.812;9.866;2023-03-01T06:12:40;41.63;;;17.77;;
20271;SDS011;10295;49.812;9.866;2023-03-01T06:15:09;37.63;;;17.13;;
20271;SDS011;10295;49.812;9.866;2023-03-01T06:17:37;36.10;;;16.93;;
20271;SDS011;10295;49.812;9.866;2023-03-01T06:20:06;44.63;;;18.27;;
20271;SDS011;10295;49.812;9.866;2023-03-01T06:22:33;36.77;;;17.07;;
20271;SDS011;10295;49.812;9.866;2023-03-01T06:25:00;41.10;;;17.23;;
20271;SDS011;10295;49.812;9.866;2023-03-01T06:27:28;37.83;;;17.20;;
20271;SDS011;10295;49.812;9.866;2023-03-01T06:29:55;38.70;;;16.47;;
20271;SDS011;10295;49.812;9.866;2023-03-01T06:32:22;35.73;;;17.20;;
20271;SDS011;10295;49.812;9.866;2023-03-01T06:34:49;43.07;;;17.70;;
20271;SDS011;10295;49.812;9.866;2023-03-01T06:37:16;35.83;;;16.43;;
20271;SDS011;10295;49.812;9.866;2023-03-01T06:39:43;34.10;;;15.80;;
20271;SDS011;10295;49.812;9.866;2023-03-01T06:42:11;37.03;;;16.87;;
20271;SDS011;10295;49.812;9.866;2023-03-01T06:44:38;37.40;;;16.30;;
20271;SDS011;10295;49.812;9.866;2023-03-01T06:47:05;34.80;;;15.90;;
20271;SDS011;10295;49.812;9.866;2023-03-01T06:49:32;42.20;;;15.33;;
20271;SDS011;10295;49.812;9.866;2023-03-01T06:51:59;33.83;;;15.10;;
20271;SDS011;10295;49.812;9.866;2023-03-01T06:54:26;34.17;;;14.83;;
20271;SDS011;10295;49.812;9.866;2023-03-01T06:56:54;35.53;;;15.73;;
20271;SDS011;10295;49.812;9.866;2023-03-01T06:59:21;32.57;;;15.37;;
20271;SDS011;10295;49.812;9.866;2023-03-01T07:01:48;33.20;;;15.33;;
20271;SDS011;10295;49.812;9.866;2023-03-01T07:04:15;29.87;;;13.97;;
20271;SDS011;10295;49.812;9.866;2023-03-01T07:06:42;32.73;;;14.77;;
20271;SDS011;10295;49.812;9.866;2023-03-01T07:09:09;30.27;;;14.67;;
20271;SDS011;10295;49.812;9.866;2023-03-01T07:11:37;31.97;;;15.30;;
20271;SDS011;10295;49.812;9.866;2023-03-01T07:14:04;27.67;;;14.73;;
20271;SDS011;10295;49.812;9.866;2023-03-01T07:16:33;31.70;;;14.27;;
20271;SDS011;10295;49.812;9.866;2023-03-01T07:19:00;31.27;;;14.70;;
20271;SDS011;10295;49.812;9.866;2023-03-01T07:21:27;28.80;;;13.30;;
20271;SDS011;10295;49.812;9.866;2023-03-01T07:23:54;28.73;;;14.00;;
20271;SDS011;10295;49.812;9.866;2023-03-01T07:26:22;25.60;;;13.60;;
20271;SDS011;10295;49.812;9.866;2023-03-01T07:28:51;27.23;;;13.87;;
20271;SDS011;10295;49.812;9.866;2023-03-01T07:31:18;25.83;;;13.80;;
20271;SDS011;10295;49.812;9.866;2023-03-01T07:33:45;27.67;;;13.80;;
20271;SDS011;10295;49.812;9.866;2023-03-01T07:36:12;27.50;;;13.40;;
20271;SDS011;10295;49.812;9.866;2023-03-01T07:38:40;24.60;;;12.93;;
20271;SDS011;10295;49.812;9.866;2023-03-01T07:41:07;23.80;;;12.93;;
20271;SDS011;10295;49.812;9.866;2023-03-01T07:43:35;27.73;;;13.73;;
20271;SDS011;10295;49.812;9.866;2023-03-01T07:46:02;24.77;;;13.30;;
20271;SDS011;10295;49.812;9.866;2023-03-01T07:48:30;27.97;;;15.47;;
20271;SDS011;10295;49.812;9.866;2023-03-01T07:50:58;24.57;;;14.30;;
20271;SDS011;10295;49.812;9.866;2023-03-01T07:53:25;26.67;;;13.77;;
20271;SDS011;10295;49.812;9.866;2023-03-01T07:58:29;27.97;;;13.60;;
20271;SDS011;10295;49.812;9.866;2023-03-01T08:00:57;26.27;;;14.63;;
20271;SDS011;10295;49.812;9.866;2023-03-01T08:03:27;27.27;;;13.57;;
20271;SDS011;10295;49.812;9.866;2023-03-01T08:05:54;26.33;;;13.10;;
20271;SDS011;10295;49.812;9.866;2023-03-01T08:08:22;23.70;;;14.07;;
20271;SDS011;10295;49.812;9.866;2023-03-01T08:10:49;27.90;;;14.07;;
20271;SDS011;10295;49.812;9.866;2023-03-01T08:13:16;24.77;;;13.97;;
20271;SDS011;10295;49.812;9.866;2023-03-01T08:15:48;25.37;;;13.63;;
20271;SDS011;10295;49.812;9.866;2023-03-01T08:18:16;26.80;;;14.13;;
20271;SDS011;10295;49.812;9.866;2023-03-01T08:20:43;23.93;;;14.10;;
20271;SDS011;10295;49.812;9.866;2023-03-01T08:23:10;25.37;;;14.43;;
20271;SDS011;10295;49.812;9.866;2023-03-01T08:25:38;26.10;;;14.00;;
20271;SDS011;10295;49.812;9.866;2023-03-01T08:28:06;23.70;;;13.87;;
20271;SDS011;10295;49.812;9.866;2023-03-01T08:30:33;28.27;;;14.70;;
20271;SDS011;10295;49.812;9.866;2023-03-01T08:33:00;25.53;;;14.67;;
20271;SDS011;10295;49.812;9.866;2023-03-01T08:35:28;22.03;;;13.10;;
20271;SDS011;10295;49.812;9.866;2023-03-01T08:37:55;26.00;;;14.43;;
20271;SDS011;10295;49.812;9.866;2023-03-01T08:40:22;27.30;;;13.70;;
20271;SDS011;10295;49.812;9.866;2023-03-01T08:42:49;25.67;;;14.20;;
20271;SDS011;10295;49.812;9.866;2023-03-01T08:45:16;25.43;;;14.07;;
20271;SDS011;10295;49.812;9.866;2023-03-01T08:47:44;23.50;;;13.80;;
20271;SDS011;10295;49.812;9.866;2023-03-01T08:50:11;23.77;;;13.33;;
20271;SDS011;10295;49.812;9.866;2023-03-01T08:52:39;30.27;;;14.03;;
20271;SDS011;10295;49.812;9.866;2023-03-01T08:55:06;25.47;;;13.33;;
20271;SDS011;10295;49.812;9.866;2023-03-01T08:57:33;25.87;;;13.57;;
20271;SDS011;10295;49.812;9.866;2023-03-01T09:00:00;26.40;;;13.53;;
20271;SDS011;10295;49.812;9.866;2023-03-01T09:02:29;22.70;;;13.67;;
20271;SDS011;10295;49.812;9.866;2023-03-01T09:04:56;23.67;;;13.20;;
20271;SDS011;10295;49.812;9.866;2023-03-01T09:07:23;24.60;;;13.27;;
20271;SDS011;10295;49.812;9.866;2023-03-01T09:09:54;27.13;;;14.53;;
20271;SDS011;10295;49.812;9.866;2023-03-01T09:12:21;27.47;;;14.93;;
20271;SDS011;10295;49.812;9.866;2023-03-01T09:14:48;27.67;;;14.67;;
20271;SDS011;10295;49.812;9.866;2023-03-01T09:17:15;29.07;;;14.17;;
20271;SDS011;10295;49.812;9.866;2023-03-01T09:19:43;27.90;;;14.03;;
20271;SDS011;10295;49.812;9.866;2023-03-01T09:22:10;24.33;;;14.27;;
20271;SDS011;10295;49.812;9.866;2023-03-01T09:24:37;26.30;;;14.30;;
20271;SDS011;10295;49.812;9.866;2023-03-01T09:27:05;28.90;;;14.90;;
20271;SDS011;10295;49.812;9.866;2023-03-01T09:29:35;24.67;;;12.10;;
20271;SDS011;10295;49.812;9.866;2023-03-01T09:32:02;30.33;;;14.37;;
20271;SDS011;10295;49.812;9.866;2023-03-01T09:34:30;27.27;;;13.93;;
20271;SDS011;10295;49.812;9.866;2023-03-01T09:36:57;26.83;;;13.00;;
20271;SDS011;10295;49.812;9.866;2023-03-01T09:39:28;27.73;;;14.20;;
20271;SDS011;10295;49.812;9.866;2023-03-01T09:42:00;30.23;;;15.23;;
20271;SDS011;10295;49.812;9.866;2023-03-01T09:44:30;27.27;;;13.17;;
20271;SDS011;10295;49.812;9.866;2023-03-01T09:47:00;27.93;;;13.53;;
20271;SDS011;10295;49.812;9.866;2023-03-01T09:49:28;28.57;;;14.07;;
20271;SDS011;10295;49.812;9.866;2023-03-01T09:52:00;28.90;;;13.87;;
20271;SDS011;10295;49.812;9.866;2023-03-01T09:54:30;27.77;;;14.70;;
20271;SDS011;10295;49.812;9.866;2023-03-01T09:57:06;30.17;;;14.77;;
20271;SDS011;10295;49.812;9.866;2023-03-01T10:02:38;25.27;;;13.87;;
20271;SDS011;10295;49.812;9.866;2023-03-01T10:10:07;31.00;;;14.37;;
20271;SDS011;10295;49.812;9.866;2023-03-01T10:12:36;26.37;;;15.60;;
20271;SDS011;10295;49.812;9.866;2023-03-01T10:15:06;26.90;;;14.40;;
20271;SDS011;10295;49.812;9.866;2023-03-01T10:18:20;28.47;;;15.57;;
20271;SDS011;10295;49.812;9.866;2023-03-01T10:23:15;27.03;;;14.97;;
20271;SDS011;10295;49.812;9.866;2023-03-01T10:28:31;26.83;;;15.20;;
20271;SDS011;10295;49.812;9.866;2023-03-01T10:31:02;24.63;;;13.57;;
20271;SDS011;10295;49.812;9.866;2023-03-01T10:33:35;26.27;;;13.67;;
20271;SDS011;10295;49.812;9.866;2023-03-01T10:36:03;28.80;;;14.73;;
20271;SDS011;10295;49.812;9.866;2023-03-01T10:38:31;29.37;;;12.37;;
20271;SDS011;10295;49.812;9.866;2023-03-01T10:41:05;31.03;;;15.20;;
20271;SDS011;10295;49.812;9.866;2023-03-01T10:46:28;25.00;;;14.20;;
20271;SDS011;10295;49.812;9.866;2023-03-01T10:49:06;27.87;;;14.77;;
20271;SDS011;10295;49.812;9.866;2023-03-01T10:51:33;26.13;;;14.63;;
20271;SDS011;10295;49.812;9.866;2023-03-01T10:54:01;31.10;;;15.10;;
20271;SDS011;10295;49.812;9.866;2023-03-01T10:56:28;26.00;;;14.40;;
20271;SDS011;10295;49.812;9.866;2023-03-01T11:01:30;29.00;;;13.87;;
20271;SDS011;10295;49.812;9.866;2023-03-01T11:06:33;23.60;;;14.27;;
20271;SDS011;10295;49.812;9.866;2023-03-01T11:09:13;27.23;;;14.13;;
20271;SDS011;10295;49.812;9.866;2023-03-01T11:11:41;27.97;;;15.43;;
20271;SDS011;10295;49.812;9.866;2023-03-01T11:14:15;29.63;;;15.20;;
20271;SDS011;10295;49.812;9.866;2023-03-01T11:17:02;25.63;;;15.30;;
20271;SDS011;10295;49.812;9.866;2023-03-01T11:19:30;26.87;;;15.17;;
20271;SDS011;10295;49.812;9.866;2023-03-01T11:22:13;27.83;;;14.87;;
20271;SDS011;10295;49.812;9.866;2023-03-01T11:24:44;25.93;;;14.60;;
20271;SDS011;10295;49.812;9.866;2023-03-01T11:27:33;26.30;;;14.60;;
20271;SDS011;10295;49.812;9.866;2023-03-01T11:30:06;23.73;;;12.20;;
20271;SDS011;10295;49.812;9.866;2023-03-01T11:32:36;25.60;;;14.93;;
20271;SDS011;10295;49.812;9.866;2023-03-01T11:40:31;29.17;;;15.43;;
20271;SDS011;10295;49.812;9.866;2023-03-01T11:43:16;25.27;;;13.87;;
20271;SDS011;10295;49.812;9.866;2023-03-01T11:46:02;26.63;;;14.40;;
20271;SDS011;10295;49.812;9.866;2023-03-01T11:51:17;24.13;;;13.40;;
20271;SDS011;10295;49.812;9.866;2023-03-01T11:59:23;24.87;;;12.70;;
20271;SDS011;10295;49.812;9.866;2023-03-01T12:04:48;27.17;;;14.50;;
20271;SDS011;10295;49.812;9.866;2023-03-01T12:08:01;28.90;;;14.73;;
20271;SDS011;10295;49.812;9.866;2023-03-01T12:15:30;29.10;;;13.90;;
20271;SDS011;10295;49.812;9.866;2023-03-01T12:23:04;27.43;;;13.33;;
20271;SDS011;10295;49.812;9.866;2023-03-01T12:25:53;24.47;;;13.03;;
20271;SDS011;10295;49.812;9.866;2023-03-01T12:28:43;26.57;;;13.13;;
20271;SDS011;10295;49.812;9.866;2023-03-01T12:31:21;26.60;;;14.30;;
20271;SDS011;10295;49.812;9.866;2023-03-01T12:33:57;25.53;;;14.07;;
20271;SDS011;10295;49.812;9.866;2023-03-01T12:36:31;26.60;;;14.30;;
20271;SDS011;10295;49.812;9.866;2023-03-01T12:44:47;27.53;;;14.97;;
20271;SDS011;10295;49.812;9.866;2023-03-01T12:47:23;25.30;;;14.83;;
20271;SDS011;10295;49.812;9.866;2023-03-01T12:49:55;22.90;;;11.83;;
20271;SDS011;10295;49.812;9.866;2023-03-01T12:52:26;25.87;;;14.00;;
20271;SDS011;10295;49.812;9.866;2023-03-01T12:54:55;23.93;;;14.03;;
20271;SDS011;10295;49.812;9.866;2023-03-01T12:57:29;26.42;;;14.27;;
20271;SDS011;10295;49.812;9.866;2023-03-01T13:02:39;24.15;;;14.32;;
20271;SDS011;10295;49.812;9.866;2023-03-01T13:07:50;23.13;;;14.10;;
20271;SDS011;10295;49.812;9.866;2023-03-01T13:17:54;23.83;;;13.90;;
20271;SDS011;10295;49.812;9.866;2023-03-01T13:20:33;25.33;;;14.38;;
20271;SDS011;10295;49.812;9.866;2023-03-01T13:23:02;22.43;;;14.00;;
20271;SDS011;10295;49.812;9.866;2023-03-01T13:25:29;26.00;;;14.10;;
20271;SDS011;10295;49.812;9.866;2023-03-01T13:30:53;23.67;;;11.27;;
20271;SDS011;10295;49.812;9.866;2023-03-01T13:35:50;24.10;;;13.23;;
20271;SDS011;10295;49.812;9.866;2023-03-01T13:38:37;24.63;;;13.13;;
20271;SDS011;10295;49.812;9.866;2023-03-01T13:41:05;26.60;;;12.80;;
20271;SDS011;10295;49.812;9.866;2023-03-01T13:43:36;27.67;;;13.17;;
20271;SDS011;10295;49.812;9.866;2023-03-01T13:46:10;23.80;;;13.27;;
20271;SDS011;10295;49.812;9.866;2023-03-01T13:48:39;21.67;;;9.77;;
20271;SDS011;10295;49.812;9.866;2023-03-01T13:51:07;22.17;;;11.37;;
20271;SDS011;10295;49.812;9.866;2023-03-01T13:53:36;26.80;;;14.03;;
20271;SDS011;10295;49.812;9.866;2023-03-01T13:56:10;23.77;;;11.87;;
20271;SDS011;10295;49.812;9.866;2023-03-01T14:01:25;26.63;;;13.57;;
20271;SDS011;10295;49.812;9.866;2023-03-01T14:03:53;21.70;;;11.10;;
20271;SDS011;10295;49.812;9.866;2023-03-01T14:06:21;27.27;;;13.83;;
20271;SDS011;10295;49.812;9.866;2023-03-01T14:08:50;21.30;;;10.37;;
20271;SDS011;10295;49.812;9.866;2023-03-01T14:14:07;25.93;;;13.63;;
20271;SDS011;10295;49.812;9.866;2023-03-01T14:19:23;24.00;;;12.20;;
20271;SDS011;10295;49.812;9.866;2023-03-01T14:24:56;20.53;;;10.67;;
20271;SDS011;10295;49.812;9.866;2023-03-01T14:27:29;25.13;;;12.67;;
20271;SDS011;10295;49.812;9.866;2023-03-01T14:29:58;24.97;;;13.23;;
20271;SDS011;10295;49.812;9.866;2023-03-01T14:32:27;20.20;;;9.93;;
20271;SDS011;10295;49.812;9.866;2023-03-01T14:34:55;23.10;;;11.97;;
20271;SDS011;10295;49.812;9.866;2023-03-01T14:37:33;22.77;;;12.87;;
20271;SDS011;10295;49.812;9.866;2023-03-01T14:40:03;22.80;;;12.50;;
20271;SDS011;10295;49.812;9.866;2023-03-01T14:42:31;21.40;;;11.13;;
20271;SDS011;10295;49.812;9.866;2023-03-01T14:45:00;24.17;;;11.87;;
20271;SDS011;10295;49.812;9.866;2023-03-01T14:47:29;23.90;;;12.27;;
20271;SDS011;10295;49.812;9.866;2023-03-01T14:52:32;26.10;;;11.90;;
20271;SDS011;10295;49.812;9.866;2023-03-01T14:55:00;23.50;;;11.30;;
20271;SDS011;10295;49.812;9.866;2023-03-01T14:57:29;22.97;;;11.03;;
20271;SDS011;10295;49.812;9.866;2023-03-01T14:59:59;29.03;;;11.87;;
20271;SDS011;10295;49.812;9.866;2023-03-01T15:02:30;24.77;;;12.20;;
20271;SDS011;10295;49.812;9.866;2023-03-01T15:04:59;28.20;;;12.23;;
20271;SDS011;10295;49.812;9.866;2023-03-01T15:07:29;22.77;;;11.13;;
20271;SDS011;10295;49.812;9.866;2023-03-01T15:09:58;22.83;;;11.37;;
20271;SDS011;10295;49.812;9.866;2023-03-01T15:14:56;21.43;;;10.43;;
20271;SDS011;10295;49.812;9.866;2023-03-01T15:17:30;23.83;;;11.10;;
20271;SDS011;10295;49.812;9.866;2023-03-01T15:19:58;23.70;;;10.77;;
20271;SDS011;10295;49.812;9.866;2023-03-01T15:22:26;19.13;;;9.00;;
20271;SDS011;10295;49.812;9.866;2023-03-01T15:24:53;21.03;;;9.93;;
20271;SDS011;10295;49.812;9.866;2023-03-01T15:27:23;19.23;;;9.17;;
20271;SDS011;10295;49.812;9.866;2023-03-01T15:30:00;21.63;;;10.20;;
20271;SDS011;10295;49.812;9.866;2023-03-01T15:32:29;21.13;;;10.13;;
20271;SDS011;10295;49.812;9.866;2023-03-01T15:34:58;17.07;;;7.97;;
20271;SDS011;10295;49.812;9.866;2023-03-01T15:40:17;23.70;;;10.83;;
20271;SDS011;10295;49.812;9.866;2023-03-01T15:42:45;24.00;;;11.50;;
20271;SDS011;10295;49.812;9.866;2023-03-01T15:47:47;23.07;;;10.90;;
20271;SDS011;10295;49.812;9.866;2023-03-01T15:50:16;24.20;;;10.27;;
20271;SDS011;10295;49.812;9.866;2023-03-01T15:52:44;21.53;;;9.83;;
20271;SDS011;10295;49.812;9.866;2023-03-01T15:55:21;25.03;;;10.17;;
20271;SDS011;10295;49.812;9.866;2023-03-01T15:57:50;24.27;;;10.70;;
20271;SDS011;10295;49.812;9.866;2023-03-01T16:00:26;20.47;;;10.67;;
20271;SDS011;10295;49.812;9.866;2023-03-01T16:02:54;34.83;;;15.83;;
20271;SDS011;10295;49.812;9.866;2023-03-01T16:05:24;25.57;;;12.93;;
20271;SDS011;10295;49.812;9.866;2023-03-01T16:07:52;23.10;;;11.47;;
20271;SDS011;10295;49.812;9.866;2023-03-01T16:10:19;23.80;;;12.10;;
20271;SDS011;10295;49.812;9.866;2023-03-01T16:12:46;22.83;;;11.13;;
20271;SDS011;10295;49.812;9.866;2023-03-01T16:15:18;24.60;;;12.00;;
20271;SDS011;10295;49.812;9.866;2023-03-01T16:21:11;28.90;;;14.17;;
20271;SDS011;10295;49.812;9.866;2023-03-01T16:23:38;33.53;;;14.83;;